Time;durP1;ratioP1;P1;durP2;ratioP2;P2;SDS_P1;SDS_P2;PMS_P1;PMS_P2;Temp;Humidity;BMP_temperature;BMP_pressure;BME280_temperature;BME280_humidity;BME280_pressure;Samples;Min_cycle;Max_cycle;Signal;HPM_P1;HPM_P2
2022/03/27 00:00:50;;;;;;;;;;;;;;;14.07;32.63;101874.84;5055532;28;19917;-79
2022/03/27 00:03:35;;;;;;;;;;;;;;;13.97;32.83;101870.44;5042438;28;19913;-80
2022/03/27 00:06:19;;;;;;;;;;;;;;;13.95;32.46;101871.88;5050614;28;19929;-79
2022/03/27 00:09:04;;;;;;;;;;;;;;;14.03;32.40;101869.19;5049695;28;19913;-80
2022/03/27 00:11:48;;;;;;;;;;;;;;;14.13;32.42;101870.88;5023487;28;19921;-80
2022/03/27 00:14:33;;;;;;;;;;;;;;;13.88;32.43;101860.53;5002110;28;20312;-80
2022/03/27 00:17:18;;;;;;;;;;;;;;;13.85;32.33;101862.00;5012442;28;20298;-79
2022/03/27 00:20:04;;;;;;;;;;;;;;;13.63;32.90;101859.22;5047767;28;19913;-79
2022/03/27 00:22:49;;;;;;;;;;;;;;;13.71;32.98;101867.47;5021237;28;19914;-80
2022/03/27 00:25:37;;;;;;;;;;;;;;;13.78;32.79;101866.25;5021812;28;20302;-79
2022/03/27 00:28:22;;;;;;;;;;;;;;;13.98;31.84;101866.59;5021751;28;20378;-80
2022/03/27 00:31:08;;;;;;;;;;;;;;;13.73;32.25;101861.72;5021581;28;19913;-79
2022/03/27 00:33:52;;;;;;;;;;;;;;;13.79;32.86;101863.22;5002207;28;19914;-79
2022/03/27 00:36:37;;;;;;;;;;;;;;;13.76;32.37;101863.03;5005280;28;19914;-80
2022/03/27 00:39:21;;;;;;;;;;;;;;;14.03;32.49;101862.91;5014240;28;20317;-80
2022/03/27 00:42:06;;;;;;;;;;;;;;;14.05;32.69;101863.44;5042623;28;19913;-79
2022/03/27 00:44:51;;;;;;;;;;;;;;;14.13;32.23;101858.00;5052317;28;19913;-80
2022/03/27 00:47:36;;;;;;;;;;;;;;;14.09;32.76;101861.69;5023695;28;19918;-79
2022/03/27 00:50:20;;;;;;;;;;;;;;;13.83;32.68;101853.28;5019413;28;19917;-79
2022/03/27 00:53:05;;;;;;;;;;;;;;;13.87;33.29;101856.19;5024589;28;20386;-79
2022/03/27 00:55:50;;;;;;;;;;;;;;;13.90;32.84;101853.66;5020733;28;19917;-79
2022/03/27 00:58:35;;;;;;;;;;;;;;;13.80;32.99;101848.44;5021860;28;19913;-80
2022/03/27 01:01:24;;;;;;;;;;;;;;;13.71;32.51;101851.06;5020620;28;19917;-79
2022/03/27 01:04:08;;;;;;;;;;;;;;;13.76;32.87;101846.63;5020580;28;20289;-79
2022/03/27 01:06:53;;;;;;;;;;;;;;;13.84;32.55;101838.50;5020512;28;19917;-79
2022/03/27 01:09:37;;;;;;;;;;;;;;;13.90;32.09;101842.72;5019652;28;19918;-79
2022/03/27 01:12:27;;;;;;;;;;;;;;;13.65;32.72;101841.41;5023736;28;19913;-78
2022/03/27 01:15:24;;;;;;;;;;;;;;;13.69;32.80;101836.94;5019214;28;20325;-79
2022/03/27 01:18:08;;;;;;;;;;;;;;;13.61;32.98;101840.38;5025144;28;19918;-79
2022/03/27 01:20:53;;;;;;;;;;;;;;;13.71;33.20;101834.66;5018812;28;19913;-79
2022/03/27 01:23:38;;;;;;;;;;;;;;;13.65;32.06;101835.94;5022480;28;19913;-79
2022/03/27 01:26:23;;;;;;;;;;;;;;;13.84;33.16;101824.81;5005987;28;19921;-79
2022/03/27 01:29:08;;;;;;;;;;;;;;;13.74;32.47;101827.78;5010761;28;19913;-79
2022/03/27 01:31:53;;;;;;;;;;;;;;;13.67;32.62;101827.41;5020185;28;19914;-79
2022/03/27 01:34:38;;;;;;;;;;;;;;;13.54;32.48;101823.59;5019993;28;20325;-79
2022/03/27 01:37:22;;;;;;;;;;;;;;;13.47;32.31;101820.47;5020231;28;19913;-79
2022/03/27 01:40:07;;;;;;;;;;;;;;;13.49;32.35;101821.00;5021262;28;20325;-79
2022/03/27 01:42:55;;;;;;;;;;;;;;;13.52;32.29;101819.56;5024459;28;20292;-79
2022/03/27 01:45:41;;;;;;;;;;;;;;;13.50;32.05;101822.63;5049356;28;19917;-80
2022/03/27 01:48:25;;;;;;;;;;;;;;;13.43;32.13;101819.47;5020322;28;19918;-79
2022/03/27 01:51:10;;;;;;;;;;;;;;;13.36;32.05;101819.06;5019813;28;19917;-79
2022/03/27 01:53:55;;;;;;;;;;;;;;;13.39;31.94;101814.94;5019770;28;19913;-79
2022/03/27 01:56:40;;;;;;;;;;;;;;;13.40;32.39;101820.09;5021942;28;19920;-79
2022/03/27 01:59:25;;;;;;;;;;;;;;;13.39;31.88;101818.47;5019837;28;19913;-79
2022/03/27 02:02:10;;;;;;;;;;;;;;;13.39;31.38;101815.75;5024423;28;19913;-79
2022/03/27 02:04:55;;;;;;;;;;;;;;;13.33;32.10;101827.09;5003130;28;20382;-79
2022/03/27 02:07:45;;;;;;;;;;;;;;;13.23;32.15;101823.47;5002186;28;19921;-79
2022/03/27 02:10:29;;;;;;;;;;;;;;;13.03;31.73;101820.31;5004288;28;19914;-78
2022/03/27 02:13:15;;;;;;;;;;;;;;;13.03;32.23;101820.31;5006041;28;19913;-79
2022/03/27 02:15:59;;;;;;;;;;;;;;;12.60;32.79;101823.31;5020410;28;19913;-78
2022/03/27 02:18:44;;;;;;;;;;;;;;;12.75;32.53;101828.50;5024529;28;19913;-78
2022/03/27 02:21:29;;;;;;;;;;;;;;;12.78;32.00;101835.28;5021661;28;20382;-78
2022/03/27 02:24:13;;;;;;;;;;;;;;;12.80;31.92;101831.13;5019503;28;19913;-79
2022/03/27 02:26:57;;;;;;;;;;;;;;;12.67;32.20;101826.47;5019307;28;19918;-78
2022/03/27 02:29:42;;;;;;;;;;;;;;;12.81;32.12;101830.03;5018935;28;20317;-78
2022/03/27 02:32:26;;;;;;;;;;;;;;;12.89;31.99;101824.97;5019584;28;19913;-78
2022/03/27 02:35:10;;;;;;;;;;;;;;;13.13;31.58;101822.88;5021846;28;19921;-78
2022/03/27 02:37:55;;;;;;;;;;;;;;;12.82;31.91;101826.19;5019388;28;19914;-79
2022/03/27 02:40:41;;;;;;;;;;;;;;;12.89;31.63;101822.25;5019585;28;20106;-80
2022/03/27 02:43:25;;;;;;;;;;;;;;;12.81;31.72;101821.84;5017336;28;19914;-80
2022/03/27 02:46:10;;;;;;;;;;;;;;;12.90;31.83;101821.16;4998434;28;19918;-80
2022/03/27 02:48:54;;;;;;;;;;;;;;;12.89;31.84;101822.25;4998366;28;19918;-79
2022/03/27 02:51:40;;;;;;;;;;;;;;;12.97;32.29;101824.25;5025284;28;19913;-80
2022/03/27 02:54:24;;;;;;;;;;;;;;;12.90;31.64;101821.16;5006264;28;19913;-80
2022/03/27 02:57:08;;;;;;;;;;;;;;;12.91;31.63;101826.28;5022588;28;19913;-80
2022/03/27 02:59:53;;;;;;;;;;;;;;;12.84;31.70;101821.25;5021436;28;19913;-80
2022/03/27 03:02:38;;;;;;;;;;;;;;;12.75;31.74;101823.03;5025421;28;20410;-80
2022/03/27 03:05:23;;;;;;;;;;;;;;;12.83;31.84;101830.53;5021445;28;19913;-80
2022/03/27 03:08:11;;;;;;;;;;;;;;;12.61;31.96;101822.22;5021584;28;19917;-80
2022/03/27 03:10:56;;;;;;;;;;;;;;;12.69;32.32;101823.47;5022759;28;19913;-79
2022/03/27 03:13:41;;;;;;;;;;;;;;;12.62;32.50;101823.84;5053093;28;19913;-79
2022/03/27 03:16:26;;;;;;;;;;;;;;;12.75;32.87;101833.97;5022340;28;19913;-79
2022/03/27 03:19:11;;;;;;;;;;;;;;;12.63;32.83;101825.47;5022160;28;19918;-79
2022/03/27 03:21:55;;;;;;;;;;;;;;;12.42;32.86;101833.22;5024843;28;19913;-79
2022/03/27 03:24:40;;;;;;;;;;;;;;;12.35;33.05;101829.25;5021832;28;19914;-79
2022/03/27 03:27:24;;;;;;;;;;;;;;;12.02;33.53;101835.81;5023604;28;19917;-79
2022/03/27 03:30:10;;;;;;;;;;;;;;;11.88;34.17;101842.03;5044851;28;19913;-79
2022/03/27 03:32:54;;;;;;;;;;;;;;;11.79;34.49;101843.78;5007200;28;19913;-79
2022/03/27 03:35:39;;;;;;;;;;;;;;;11.83;34.37;101844.03;5020665;28;19913;-79
2022/03/27 03:38:24;;;;;;;;;;;;;;;11.91;34.40;101851.53;5021149;28;20305;-79
2022/03/27 03:41:08;;;;;;;;;;;;;;;11.51;34.67;101842.00;5021326;28;19913;-79
2022/03/27 03:43:53;;;;;;;;;;;;;;;11.20;35.62;101851.66;5025173;28;19913;-79
2022/03/27 03:46:37;;;;;;;;;;;;;;;11.46;35.12;101851.06;5020553;28;19913;-79
2022/03/27 03:49:23;;;;;;;;;;;;;;;11.62;34.86;101859.84;5019800;28;20285;-79
2022/03/27 03:52:08;;;;;;;;;;;;;;;11.49;35.28;101855.09;5023643;28;19914;-79
2022/03/27 03:54:53;;;;;;;;;;;;;;;11.61;34.97;101863.66;5022138;28;19913;-80
2022/03/27 03:57:37;;;;;;;;;;;;;;;11.60;35.39;101856.59;5019967;28;19913;-80
2022/03/27 04:00:22;;;;;;;;;;;;;;;11.57;35.47;101863.44;5024216;28;19914;-78
2022/03/27 04:03:07;;;;;;;;;;;;;;;11.29;36.28;101858.09;5021164;28;19913;-79
2022/03/27 04:05:51;;;;;;;;;;;;;;;10.99;36.95;101862.81;5020880;28;19914;-80
2022/03/27 04:08:36;;;;;;;;;;;;;;;11.29;36.50;101863.53;5019420;28;19918;-79
2022/03/27 04:11:20;;;;;;;;;;;;;;;11.19;36.42;101856.31;5020666;28;19917;-79
2022/03/27 04:14:05;;;;;;;;;;;;;;;11.07;36.84;101850.47;5022344;28;19915;-78
2022/03/27 04:16:49;;;;;;;;;;;;;;;11.05;36.80;101861.66;5020714;28;20301;-78
2022/03/27 04:19:34;;;;;;;;;;;;;;;11.03;37.07;101858.41;5022923;28;19914;-79
2022/03/27 04:22:18;;;;;;;;;;;;;;;10.98;37.01;101855.72;5021615;28;20378;-78
2022/03/27 04:25:03;;;;;;;;;;;;;;;11.07;36.84;101859.44;5020458;28;19917;-79
2022/03/27 04:27:48;;;;;;;;;;;;;;;11.00;37.22;101859.00;5021326;28;19917;-79
2022/03/27 04:30:32;;;;;;;;;;;;;;;11.17;37.05;101861.25;5052274;28;19913;-78
2022/03/27 04:33:17;;;;;;;;;;;;;;;10.97;37.08;101864.22;5049567;28;19913;-79
2022/03/27 04:36:05;;;;;;;;;;;;;;;10.64;37.67;101857.75;5021727;28;20309;-78
2022/03/27 04:38:50;;;;;;;;;;;;;;;10.55;38.19;101860.28;5019675;28;19917;-79
2022/03/27 04:41:34;;;;;;;;;;;;;;;10.57;38.43;101857.25;5019050;28;19913;-79
2022/03/27 04:44:18;;;;;;;;;;;;;;;9.98;39.40;101862.91;5022843;28;19913;-79
2022/03/27 04:47:03;;;;;;;;;;;;;;;10.06;39.44;101859.56;5016857;28;20305;-79
2022/03/27 04:49:48;;;;;;;;;;;;;;;10.02;39.14;101858.53;5019601;28;19913;-78
2022/03/27 04:52:33;;;;;;;;;;;;;;;10.07;39.16;101856.59;5020306;28;19913;-78
2022/03/27 04:55:17;;;;;;;;;;;;;;;9.98;39.58;101866.44;5019837;28;19914;-78
2022/03/27 04:58:02;;;;;;;;;;;;;;;10.05;39.28;101868.84;5019875;28;19914;-79
2022/03/27 05:00:46;;;;;;;;;;;;;;;10.10;38.71;101866.91;5019725;28;19913;-78
2022/03/27 05:03:31;;;;;;;;;;;;;;;10.15;38.61;101876.91;5021700;28;19918;-79
2022/03/27 05:06:16;;;;;;;;;;;;;;;10.26;38.35;101875.75;5021196;28;19913;-79
2022/03/27 05:09:00;;;;;;;;;;;;;;;10.35;37.82;101884.13;5052762;28;19917;-80
2022/03/27 05:11:45;;;;;;;;;;;;;;;10.25;38.32;101882.31;5021968;28;19913;-79
2022/03/27 05:14:30;;;;;;;;;;;;;;;10.06;38.58;101887.56;5050110;28;19913;-79
2022/03/27 05:17:14;;;;;;;;;;;;;;;10.20;38.61;101888.59;5019639;28;19921;-79
2022/03/27 05:20:01;;;;;;;;;;;;;;;10.06;39.10;101887.56;5013515;28;19913;-79
2022/03/27 05:22:45;;;;;;;;;;;;;;;10.10;39.00;101883.22;5021659;28;19914;-79
2022/03/27 05:25:31;;;;;;;;;;;;;;;10.16;38.77;101889.41;5017606;28;19914;-78
2022/03/27 05:28:15;;;;;;;;;;;;;;;9.97;39.13;101891.97;5017213;28;20321;-78
2022/03/27 05:31:08;;;;;;;;;;;;;;;10.12;39.00;101899.22;5017322;28;19914;-78
2022/03/27 05:33:53;;;;;;;;;;;;;;;9.89;39.02;101898.03;5017314;28;19917;-78
2022/03/27 05:36:37;;;;;;;;;;;;;;;9.94;39.13;101898.00;5017310;28;19913;-79
2022/03/27 05:39:22;;;;;;;;;;;;;;;9.95;38.94;101896.09;5014058;28;19913;-79
2022/03/27 05:42:07;;;;;;;;;;;;;;;9.77;39.40;101889.41;5011083;28;19913;-78
2022/03/27 05:44:52;;;;;;;;;;;;;;;9.67;39.81;101903.03;5011983;28;19913;-79
2022/03/27 05:47:41;;;;;;;;;;;;;;;9.77;40.02;101916.56;5016180;28;19917;-79
2022/03/27 05:50:26;;;;;;;;;;;;;;;9.82;39.92;101908.38;5017520;28;19913;-78
2022/03/27 05:53:10;;;;;;;;;;;;;;;9.72;40.50;101917.41;5020316;28;19914;-78
2022/03/27 05:55:57;;;;;;;;;;;;;;;9.88;40.21;101907.25;5028480;28;19909;-79
2022/03/27 05:58:41;;;;;;;;;;;;;;;10.06;39.65;101920.16;5033399;28;19917;-78
2022/03/27 06:01:26;;;;;;;;;;;;;;;10.00;40.12;101923.22;5029769;28;19913;-79
2022/03/27 06:04:11;;;;;;;;;;;;;;;10.01;40.40;101927.53;5031578;28;19918;-79
2022/03/27 06:06:56;;;;;;;;;;;;;;;10.36;39.56;101918.38;5027988;28;19913;-79
2022/03/27 06:09:40;;;;;;;;;;;;;;;10.40;39.39;101924.88;5061935;28;19913;-79
2022/03/27 06:12:25;;;;;;;;;;;;;;;10.49;39.44;101923.97;5057065;28;19913;-80
2022/03/27 06:15:10;;;;;;;;;;;;;;;10.32;40.15;101925.47;5051234;23;19905;-74
2022/03/27 06:17:55;;;;;;;;;;;;;;;10.48;39.93;101926.97;5021259;28;19925;-74
2022/03/27 06:20:40;;;;;;;;;;;;;;;10.69;39.67;101925.69;5030163;28;19913;-74
2022/03/27 06:23:25;;;;;;;;;;;;;;;10.88;39.36;101934.75;5028454;28;20292;-74
2022/03/27 06:26:10;;;;;;;;;;;;;;;11.01;40.00;101936.00;5035980;28;20423;-77
2022/03/27 06:28:54;;;;;;;;;;;;;;;11.19;40.00;101942.59;5027782;28;19916;-73
2022/03/27 06:31:38;;;;;;;;;;;;;;;11.38;39.74;101952.47;5031705;28;19913;-76
2022/03/27 06:34:23;;;;;;;;;;;;;;;11.62;39.76;101951.66;5031982;28;19913;-76
2022/03/27 06:37:08;;;;;;;;;;;;;;;11.70;39.54;101953.72;5032014;28;19913;-76
2022/03/27 06:39:54;;;;;;;;;;;;;;;11.86;38.83;101950.53;5031941;28;19913;-76
2022/03/27 06:42:39;;;;;;;;;;;;;;;12.05;38.43;101955.16;5031816;28;19913;-77
2022/03/27 06:45:25;;;;;;;;;;;;;;;16.39;31.70;101952.50;5032237;28;19913;-74
2022/03/27 06:48:10;;;;;;;;;;;;;;;19.57;26.34;101955.78;5031679;28;19917;-75
2022/03/27 06:50:54;;;;;;;;;;;;;;;19.60;25.89;101951.56;5031379;28;20360;-75
2022/03/27 06:53:40;;;;;;;;;;;;;;;20.73;23.73;101965.97;5012713;28;19913;-75
2022/03/27 06:56:25;;;;;;;;;;;;;;;21.32;22.73;101963.22;5012728;28;19913;-76
2022/03/27 06:59:09;;;;;;;;;;;;;;;21.60;22.72;101965.84;5030854;28;19913;-76
2022/03/27 07:04:57;;;;;;;;;;;;;;;24.44;19.49;101974.59;5032236;28;20375;-76
2022/03/27 07:07:42;;;;;;;;;;;;;;;24.79;18.90;101976.19;5032020;28;19917;-76
2022/03/27 07:10:27;;;;;;;;;;;;;;;24.96;18.53;101972.81;5032141;28;19913;-76
2022/03/27 07:13:12;;;;;;;;;;;;;;;25.91;17.36;101976.34;5031907;28;19916;-76
2022/03/27 07:15:57;;;;;;;;;;;;;;;28.36;15.17;101987.81;5031991;28;19913;-77
2022/03/27 07:18:41;;;;;;;;;;;;;;;27.08;16.67;101985.19;5031825;28;19917;-76
2022/03/27 07:21:26;;;;;;;;;;;;;;;27.48;16.34;101988.81;5031757;28;19913;-75
2022/03/27 07:24:10;;;;;;;;;;;;;;;28.45;15.43;101990.97;5035977;28;19917;-76
2022/03/27 07:26:55;;;;;;;;;;;;;;;29.43;14.23;101985.97;5031704;28;19913;-76
2022/03/27 07:29:39;;;;;;;;;;;;;;;29.36;14.55;101990.88;5031680;28;19916;-76
2022/03/27 07:32:23;;;;;;;;;;;;;;;27.18;16.01;101995.56;5031793;28;19917;-76
2022/03/27 07:35:09;;;;;;;;;;;;;;;27.77;15.94;101998.78;5031503;28;20384;-77
2022/03/27 07:37:54;;;;;;;;;;;;;;;26.50;17.11;101990.22;5017129;28;19912;-76
2022/03/27 07:40:38;;;;;;;;;;;;;;;26.82;16.92;101994.69;5032614;28;19913;-75
2022/03/27 07:43:23;;;;;;;;;;;;;;;26.66;16.78;101996.25;5035683;28;19913;-75
2022/03/27 07:46:07;;;;;;;;;;;;;;;27.07;16.68;101996.78;5029176;28;19913;-77
2022/03/27 07:48:52;;;;;;;;;;;;;;;28.79;14.26;101997.66;5034524;28;19917;-76
2022/03/27 07:51:36;;;;;;;;;;;;;;;28.25;15.13;102004.66;5035368;28;20388;-76
2022/03/27 07:54:21;;;;;;;;;;;;;;;30.92;13.75;101999.09;5034667;28;19913;-77
2022/03/27 07:57:05;;;;;;;;;;;;;;;32.61;12.16;102013.31;5035323;28;19917;-76
2022/03/27 07:59:50;;;;;;;;;;;;;;;32.71;11.57;102014.34;5036446;28;19912;-76
2022/03/27 08:02:34;;;;;;;;;;;;;;;33.62;10.66;102014.16;5038041;28;19913;-76
2022/03/27 08:05:19;;;;;;;;;;;;;;;34.83;10.00;102017.16;5030970;28;19913;-78
2022/03/27 08:08:03;;;;;;;;;;;;;;;35.16;10.08;102014.88;5025992;28;19921;-78
2022/03/27 08:10:48;;;;;;;;;;;;;;;34.02;11.09;102005.41;5036878;28;20383;-76
2022/03/27 08:13:32;;;;;;;;;;;;;;;34.75;10.69;102019.41;5035925;28;19921;-77
2022/03/27 08:16:17;;;;;;;;;;;;;;;35.26;10.53;102027.91;5035686;28;19912;-76
2022/03/27 08:19:02;;;;;;;;;;;;;;;35.13;10.05;102022.25;5030819;28;19917;-75
2022/03/27 08:21:47;;;;;;;;;;;;;;;35.10;10.21;102023.13;5035636;28;19913;-77
2022/03/27 08:24:33;;;;;;;;;;;;;;;36.00;9.10;102021.72;5034920;28;19913;-75
2022/03/27 08:27:20;;;;;;;;;;;;;;;35.60;9.47;102019.47;5034251;28;19917;-77
2022/03/27 08:30:06;;;;;;;;;;;;;;;36.68;8.79;102028.50;5020552;28;20364;-77
2022/03/27 08:32:51;;;;;;;;;;;;;;;34.92;10.94;102025.75;5033944;28;20294;-74
2022/03/27 08:35:35;;;;;;;;;;;;;;;30.56;12.97;102014.84;5034869;28;19913;-75
2022/03/27 08:38:20;;;;;;;;;;;;;;;31.11;13.20;102019.31;5030420;28;19920;-75
2022/03/27 08:41:05;;;;;;;;;;;;;;;32.05;12.46;102020.91;5036136;28;19913;-75
2022/03/27 08:43:58;;;;;;;;;;;;;;;31.77;11.94;102017.41;5033939;28;19913;-74
2022/03/27 08:46:43;;;;;;;;;;;;;;;33.28;11.49;102020.22;5033582;28;19913;-74
2022/03/27 08:49:34;;;;;;;;;;;;;;;32.91;11.57;102035.63;5033968;28;19917;-76
2022/03/27 08:52:21;;;;;;;;;;;;;;;32.84;10.98;102030.13;5032930;28;19913;-76
2022/03/27 08:55:07;;;;;;;;;;;;;;;33.41;11.41;102025.97;5034119;28;20407;-75
2022/03/27 08:57:51;;;;;;;;;;;;;;;34.44;10.19;102029.63;5033891;28;19913;-76
2022/03/27 09:00:36;;;;;;;;;;;;;;;33.32;9.90;102026.56;5034090;28;19917;-76
2022/03/27 09:03:21;;;;;;;;;;;;;;;34.78;8.56;102036.72;5034176;28;19913;-76
2022/03/27 09:06:08;;;;;;;;;;;;;;;33.87;8.94;102027.63;5047500;28;20284;-77
2022/03/27 09:08:53;;;;;;;;;;;;;;;35.99;7.60;102035.09;5033184;28;19917;-77
2022/03/27 09:11:39;;;;;;;;;;;;;;;34.25;8.85;102039.06;5033291;28;19913;-76
2022/03/27 09:14:24;;;;;;;;;;;;;;;35.53;7.60;102031.03;5033533;28;19913;-77
2022/03/27 09:17:09;;;;;;;;;;;;;;;36.59;7.55;102040.56;5033501;28;19913;-75
2022/03/27 09:19:53;;;;;;;;;;;;;;;32.87;9.96;102036.91;5053139;28;19913;-78
2022/03/27 09:22:38;;;;;;;;;;;;;;;35.50;8.17;102031.94;5033818;28;19913;-76
2022/03/27 09:25:23;;;;;;;;;;;;;;;35.76;8.44;102031.91;5050025;28;19913;-77
2022/03/27 09:28:08;;;;;;;;;;;;;;;35.53;8.60;102039.50;5024081;28;19917;-75
2022/03/27 09:30:53;;;;;;;;;;;;;;;32.46;10.14;102029.72;5032997;28;19913;-75
2022/03/27 09:33:46;;;;;;;;;;;;;;;35.58;8.92;102033.28;5031116;28;20360;-76
2022/03/27 09:36:32;;;;;;;;;;;;;;;35.31;8.77;102035.81;5030185;28;19913;-77
2022/03/27 09:39:18;;;;;;;;;;;;;;;36.43;8.06;102041.56;5031482;28;19913;-75
2022/03/27 09:42:03;;;;;;;;;;;;;;;37.14;7.37;102033.13;5033028;28;19917;-76
2022/03/27 09:44:50;;;;;;;;;;;;;;;38.27;7.00;102043.66;5033218;28;19913;-75
2022/03/27 09:47:35;;;;;;;;;;;;;;;38.01;6.82;102041.19;5013471;28;20313;-75
2022/03/27 09:50:34;;;;;;;;;;;;;;;37.19;7.23;102038.19;5018742;28;19920;-75
2022/03/27 09:53:21;;;;;;;;;;;;;;;36.86;7.46;102037.09;5032975;28;19913;-77
2022/03/27 09:56:06;;;;;;;;;;;;;;;38.35;6.97;102034.31;5054902;28;19913;-75
2022/03/27 09:58:51;;;;;;;;;;;;;;;36.75;7.59;102028.22;5052661;28;20282;-75
2022/03/27 10:01:35;;;;;;;;;;;;;;;37.03;7.74;102029.91;5039945;28;20399;-75
2022/03/27 10:04:20;;;;;;;;;;;;;;;37.28;7.40;102034.59;5028342;28;20396;-77
2022/03/27 10:07:16;;;;;;;;;;;;;;;40.62;5.82;102025.63;5030907;28;19920;-75
2022/03/27 10:10:01;;;;;;;;;;;;;;;42.49;5.05;102032.72;5032790;28;20311;-77
2022/03/27 10:12:47;;;;;;;;;;;;;;;40.88;5.20;102022.94;5032939;28;19917;-77
2022/03/27 10:15:31;;;;;;;;;;;;;;;40.12;5.81;102021.84;5037097;28;20345;-76
2022/03/27 10:18:20;;;;;;;;;;;;;;;39.03;5.83;102012.00;5033284;28;19917;-76
2022/03/27 10:21:05;;;;;;;;;;;;;;;42.08;5.03;102021.41;5012673;28;19918;-78
2022/03/27 10:23:53;;;;;;;;;;;;;;;42.58;4.85;102015.34;5025094;28;19913;-76
2022/03/27 10:26:38;;;;;;;;;;;;;;;39.78;5.37;102017.56;5026795;28;20438;-78
2022/03/27 10:29:23;;;;;;;;;;;;;;;41.04;5.33;102011.00;5012498;28;19917;-76
2022/03/27 10:32:09;;;;;;;;;;;;;;;41.36;5.01;102009.06;5043849;28;19913;-76
2022/03/27 10:35:19;;;;;;;;;;;;;;;36.01;7.70;101992.16;5032497;28;19913;-77
2022/03/27 10:38:04;;;;;;;;;;;;;;;38.44;6.39;101988.88;5031676;28;19913;-75
2022/03/27 10:41:09;;;;;;;;;;;;;;;39.47;6.11;101991.53;5031824;28;19913;-76
2022/03/27 10:44:01;;;;;;;;;;;;;;;39.78;5.78;101991.13;5031927;28;19913;-77
2022/03/27 10:47:05;;;;;;;;;;;;;;;40.28;5.90;101992.88;5027118;28;20388;-75
2022/03/27 10:50:04;;;;;;;;;;;;;;;42.98;4.81;101992.25;5031194;28;20365;-78
2022/03/27 10:52:51;;;;;;;;;;;;;;;37.24;6.46;101977.97;5031207;28;19912;-76
2022/03/27 10:55:46;;;;;;;;;;;;;;;38.99;5.91;101985.00;5018519;28;19916;-76
2022/03/27 10:58:36;;;;;;;;;;;;;;;39.81;5.26;101968.16;5032268;28;19913;-74
2022/03/27 11:01:20;;;;;;;;;;;;;;;40.17;4.73;101969.84;5035032;28;19913;-75
2022/03/27 11:04:06;;;;;;;;;;;;;;;40.12;4.41;101959.13;5031894;28;19913;-75
2022/03/27 11:07:12;;;;;;;;;;;;;;;38.39;4.53;101954.56;5045868;28;19913;-76
2022/03/27 11:09:56;;;;;;;;;;;;;;;40.58;4.39;101960.19;5034318;28;20372;-78
2022/03/27 11:12:41;;;;;;;;;;;;;;;40.67;4.88;101953.59;5032163;28;19913;-77
2022/03/27 11:15:26;;;;;;;;;;;;;;;42.86;3.68;101959.13;5032484;28;20365;-78
2022/03/27 11:18:12;;;;;;;;;;;;;;;44.12;3.15;101958.53;5035561;28;19913;-76
2022/03/27 11:20:57;;;;;;;;;;;;;;;38.53;4.77;101939.69;5035565;28;19917;-76
2022/03/27 11:23:45;;;;;;;;;;;;;;;38.35;5.06;101937.69;5034927;28;19913;-75
2022/03/27 11:26:30;;;;;;;;;;;;;;;40.32;3.90;101941.34;5035711;28;19913;-77
2022/03/27 11:29:22;;;;;;;;;;;;;;;41.67;3.72;101945.56;5030378;28;19917;-76
2022/03/27 11:32:08;;;;;;;;;;;;;;;40.88;3.68;101946.66;5054862;28;19917;-75
2022/03/27 11:35:09;;;;;;;;;;;;;;;40.90;3.57;101940.41;5035465;28;19913;-77
2022/03/27 11:38:26;;;;;;;;;;;;;;;37.25;5.19;101939.03;5035440;28;19917;-76
2022/03/27 11:41:27;;;;;;;;;;;;;;;40.42;3.98;101934.25;5034641;28;19913;-76
2022/03/27 11:44:23;;;;;;;;;;;;;;;42.05;3.11;101930.94;5029131;28;19913;-78
2022/03/27 11:47:13;;;;;;;;;;;;;;;42.46;2.82;101927.88;5035066;28;19916;-77
2022/03/27 11:49:57;;;;;;;;;;;;;;;38.29;3.98;101924.63;5034896;28;19921;-75
2022/03/27 11:52:44;;;;;;;;;;;;;;;42.10;2.28;101920.81;5035484;28;20372;-74
2022/03/27 11:55:29;;;;;;;;;;;;;;;38.61;4.12;101912.47;5035173;28;20284;-74
2022/03/27 11:58:19;;;;;;;;;;;;;;;37.28;4.78;101908.94;5047558;28;20379;-74
2022/03/27 12:01:06;;;;;;;;;;;;;;;36.67;5.09;101908.66;5044027;28;19913;-76
2022/03/27 12:03:56;;;;;;;;;;;;;;;37.54;4.71;101907.34;5015732;28;19913;-74
2022/03/27 12:06:40;;;;;;;;;;;;;;;35.27;5.69;101890.88;5021813;28;19913;-75
2022/03/27 12:09:25;;;;;;;;;;;;;;;36.13;5.63;101897.78;5030454;28;19917;-74
2022/03/27 12:12:14;;;;;;;;;;;;;;;36.47;6.07;101898.94;5030375;28;19912;-74
2022/03/27 12:15:08;;;;;;;;;;;;;;;37.87;5.47;101894.06;5033915;28;19913;-75
2022/03/27 12:17:54;;;;;;;;;;;;;;;39.04;5.29;101890.44;5033908;28;20296;-76
2022/03/27 12:20:41;;;;;;;;;;;;;;;37.63;7.78;101893.19;5031824;28;19913;-76
2022/03/27 12:23:29;;;;;;;;;;;;;;;36.22;7.78;101888.56;5034009;28;19913;-72
2022/03/27 12:29:42;;;;;;;;;;;;;;;35.30;8.15;101875.81;5031002;28;19916;-76
2022/03/27 12:32:28;;;;;;;;;;;;;;;32.98;10.80;101874.75;5031931;28;20364;-75
2022/03/27 12:35:20;;;;;;;;;;;;;;;32.75;11.28;101869.31;5033983;28;19917;-75
2022/03/27 12:38:05;;;;;;;;;;;;;;;32.10;11.66;101880.41;5034229;28;19912;-73
2022/03/27 12:40:51;;;;;;;;;;;;;;;31.58;11.84;101868.28;5029822;28;19913;-75
2022/03/27 12:43:36;;;;;;;;;;;;;;;32.81;10.79;101859.09;5033225;28;19913;-74
2022/03/27 12:46:22;;;;;;;;;;;;;;;31.62;11.80;101863.38;5030925;28;19913;-74
2022/03/27 12:49:10;;;;;;;;;;;;;;;31.58;11.75;101857.03;5030260;28;19921;-75
2022/03/27 12:51:57;;;;;;;;;;;;;;;32.95;10.77;101858.75;5033906;28;20280;-73
2022/03/27 12:55:03;;;;;;;;;;;;;;;33.12;11.14;101861.53;5032571;28;19913;-74
2022/03/27 12:57:50;;;;;;;;;;;;;;;34.42;9.82;101851.31;5032127;28;19996;-76
2022/03/27 13:00:34;;;;;;;;;;;;;;;31.08;12.24;101855.13;5017378;28;19914;-74
2022/03/27 13:03:22;;;;;;;;;;;;;;;30.52;12.71;101846.44;5032416;28;19913;-75
2022/03/27 13:06:08;;;;;;;;;;;;;;;30.70;12.63;101848.13;5032981;28;19913;-75
2022/03/27 13:08:57;;;;;;;;;;;;;;;30.74;12.92;101846.84;5036018;28;20384;-75
2022/03/27 13:11:43;;;;;;;;;;;;;;;30.62;12.63;101844.66;5033486;28;19913;-74
2022/03/27 13:14:29;;;;;;;;;;;;;;;29.08;14.17;101834.97;5037207;28;19917;-74
2022/03/27 13:17:13;;;;;;;;;;;;;;;27.36;15.78;101835.53;5030206;28;19913;-73
2022/03/27 13:19:58;;;;;;;;;;;;;;;26.74;16.14;101830.38;5042745;28;19916;-75
2022/03/27 13:22:43;;;;;;;;;;;;;;;26.26;16.61;101829.97;5041491;28;19917;-75
2022/03/27 13:25:28;;;;;;;;;;;;;;;25.74;17.01;101823.78;5029844;28;19948;-74
2022/03/27 13:28:12;;;;;;;;;;;;;;;25.77;17.24;101827.75;5033247;28;19917;-74
2022/03/27 13:30:57;;;;;;;;;;;;;;;25.55;17.11;101818.50;5033409;28;19912;-74
2022/03/27 13:33:43;;;;;;;;;;;;;;;26.16;16.50;101823.09;5037929;28;19913;-75
2022/03/27 13:36:27;;;;;;;;;;;;;;;25.60;16.81;101817.38;5053017;28;19912;-75
2022/03/27 13:39:12;;;;;;;;;;;;;;;26.32;16.10;101819.97;5074592;23;19924;-72
2022/03/27 13:45:00;;;;;;;;;;;;;;;26.29;16.04;101810.44;5085396;28;19912;-72
2022/03/27 13:47:44;;;;;;;;;;;;;;;25.96;16.24;101799.56;5092999;28;20524;-72
2022/03/27 13:50:29;;;;;;;;;;;;;;;26.07;16.11;101796.78;5093174;28;19916;-72
2022/03/27 13:53:13;;;;;;;;;;;;;;;25.29;16.51;101797.28;5092856;28;19911;-72
2022/03/27 13:55:59;;;;;;;;;;;;;;;25.83;15.41;101796.34;5092916;28;19912;-72
2022/03/27 13:58:43;;;;;;;;;;;;;;;25.11;16.44;101793.56;5092740;28;19920;-72
2022/03/27 14:01:29;;;;;;;;;;;;;;;25.18;16.21;101788.06;5092823;28;19912;-72
2022/03/27 14:04:15;;;;;;;;;;;;;;;25.25;16.06;101779.72;5096666;28;19912;-72
2022/03/27 14:07:00;;;;;;;;;;;;;;;25.30;16.05;101784.94;5092636;28;19912;-72
2022/03/27 14:09:44;;;;;;;;;;;;;;;25.11;15.88;101782.44;5092454;28;19920;-72
2022/03/27 14:12:29;;;;;;;;;;;;;;;25.29;15.20;101786.16;5092656;28;19912;-72
2022/03/27 14:15:13;;;;;;;;;;;;;;;24.94;15.24;101772.78;5092626;28;19912;-73
2022/03/27 14:17:58;;;;;;;;;;;;;;;24.43;15.43;101771.97;5092479;28;19911;-73
2022/03/27 14:20:43;;;;;;;;;;;;;;;25.01;15.65;101769.25;5092402;28;19912;-72
2022/03/27 14:23:28;;;;;;;;;;;;;;;24.64;15.25;101766.56;5094729;28;19912;-72
2022/03/27 14:26:12;;;;;;;;;;;;;;;24.78;15.11;101766.69;5092497;28;19916;-72